Time;durP1;ratioP1;P1;durP2;ratioP2;P2;SDS_P1;SDS_P2;PMS_P1;PMS_P2;Temp;Humidity;BMP_temperature;BMP_pressure;BME280_temperature;BME280_humidity;BME280_pressure;Samples;Min_cycle;Max_cycle;Signal;HPM_P1;HPM_P2
2023/03/16 00:01:45;;;;;;;6.43;4.07;;;7.90;99.90;;;;;;5060540;28;20648;-91
2023/03/16 00:04:11;;;;;;;5.60;3.50;;;7.90;99.90;;;;;;5037955;28;20174;-94
2023/03/16 00:06:36;;;;;;;9.17;4.40;;;7.80;99.90;;;;;;5069463;28;20205;-86
2023/03/16 00:09:03;;;;;;;5.63;3.90;;;7.90;99.90;;;;;;5050101;28;20760;-93
2023/03/16 00:11:29;;;;;;;7.40;3.77;;;7.90;99.90;;;;;;5054877;28;20208;-91
2023/03/16 00:13:55;;;;;;;7.00;3.90;;;7.90;99.90;;;;;;5056128;28;20173;-93
2023/03/16 00:16:21;;;;;;;7.83;3.93;;;7.90;99.90;;;;;;5058500;28;20166;-90
2023/03/16 00:18:46;;;;;;;6.73;3.90;;;7.80;99.90;;;;;;5065539;28;20204;-92
2023/03/16 00:21:13;;;;;;;6.50;4.47;;;7.80;99.90;;;;;;5065717;28;20685;-91
2023/03/16 00:23:41;;;;;;;5.03;3.60;;;7.80;99.90;;;;;;5059181;28;20205;-93
2023/03/16 00:26:08;;;;;;;7.83;4.37;;;7.90;99.90;;;;;;5055556;28;20181;-91
2023/03/16 00:28:35;;;;;;;4.67;3.40;;;7.90;99.90;;;;;;5054545;28;20200;-95
2023/03/16 00:31:02;;;;;;;7.23;3.30;;;7.90;99.90;;;;;;5054272;28;20198;-93
2023/03/16 00:33:28;;;;;;;8.33;4.03;;;7.90;99.90;;;;;;5054679;28;20192;-92
2023/03/16 00:36:01;;;;;;;6.47;3.47;;;7.90;99.90;;;;;;5054978;28;20174;-92
2023/03/16 00:38:33;;;;;;;6.67;3.30;;;8.00;99.90;;;;;;5075463;28;20157;-88
2023/03/16 00:41:02;;;;;;;7.70;3.67;;;8.00;99.90;;;;;;5054375;28;20222;-94
2023/03/16 00:43:39;;;;;;;5.73;3.80;;;7.90;99.90;;;;;;5067343;28;20593;-96
2023/03/16 00:46:12;;;;;;;9.73;3.53;;;8.00;99.90;;;;;;5043308;28;20189;-94
2023/03/16 00:48:43;;;;;;;6.57;3.53;;;8.00;99.90;;;;;;5067426;28;20209;-93
2023/03/16 00:51:14;;;;;;;7.83;3.40;;;7.80;99.90;;;;;;5070043;28;20514;-94
2023/03/16 00:53:49;;;;;;;4.90;2.87;;;8.00;99.90;;;;;;5065499;28;20201;-94
2023/03/16 00:56:18;;;;;;;6.03;2.90;;;7.90;99.90;;;;;;5058697;28;20177;-94
2023/03/16 00:58:44;;;;;;;6.73;3.30;;;8.00;99.90;;;;;;5065308;28;20182;-92
2023/03/16 01:01:18;;;;;;;5.37;3.47;;;8.10;99.90;;;;;;5074349;28;20220;-89
2023/03/16 01:03:45;;;;;;;6.70;3.33;;;8.00;99.90;;;;;;5075189;28;20196;-92
2023/03/16 01:06:19;;;;;;;6.17;3.03;;;8.10;99.90;;;;;;5056315;28;20182;-93
2023/03/16 01:08:51;;;;;;;6.63;3.10;;;8.00;99.90;;;;;;5030732;28;20242;-94
2023/03/16 01:11:20;;;;;;;6.73;3.13;;;8.00;99.90;;;;;;5057486;28;20185;-94
2023/03/16 01:13:53;;;;;;;9.13;3.17;;;8.10;99.90;;;;;;5055024;28;20170;-94
2023/03/16 01:16:21;;;;;;;6.63;3.30;;;8.10;99.90;;;;;;5054254;28;20231;-94
2023/03/16 01:18:48;;;;;;;8.07;3.13;;;8.20;99.90;;;;;;5053886;28;20169;-90
2023/03/16 01:21:14;;;;;;;7.50;3.53;;;8.20;99.90;;;;;;5062208;28;20193;-82
2023/03/16 01:23:42;;;;;;;6.10;3.10;;;8.30;99.90;;;;;;5057374;28;20154;-87
2023/03/16 01:26:08;;;;;;;5.93;2.87;;;8.30;99.90;;;;;;5065211;28;20182;-94
2023/03/16 01:28:34;;;;;;;5.73;3.30;;;8.10;99.90;;;;;;5062830;28;20188;-91
2023/03/16 01:31:13;;;;;;;10.80;5.90;;;8.20;99.90;;;;;;5071132;28;20207;-90
2023/03/16 01:33:40;;;;;;;7.90;4.10;;;8.20;99.90;;;;;;5064240;28;20180;-87
2023/03/16 01:36:06;;;;;;;4.47;2.93;;;8.20;99.90;;;;;;5057421;28;20244;-88
2023/03/16 01:38:32;;;;;;;5.30;3.10;;;8.10;99.90;;;;;;5066064;28;20188;-93
2023/03/16 01:40:59;;;;;;;5.93;3.00;;;8.10;99.90;;;;;;5050556;28;20277;-90
2023/03/16 01:43:27;;;;;;;6.80;3.07;;;8.10;99.90;;;;;;5058268;28;20173;-91
2023/03/16 01:46:04;;;;;;;6.63;2.97;;;8.00;99.90;;;;;;5037742;28;20260;-92
2023/03/16 01:48:53;;;;;;;7.90;2.93;;;8.10;99.90;;;;;;5051884;28;20252;-93
2023/03/16 01:51:22;;;;;;;4.10;2.43;;;8.10;99.90;;;;;;5036464;28;20618;-92
2023/03/16 01:53:56;;;;;;;5.20;3.07;;;8.00;99.90;;;;;;5056283;28;20177;-93
2023/03/16 01:56:26;;;;;;;5.40;2.83;;;8.20;99.90;;;;;;5054428;28;20222;-95
2023/03/16 01:58:57;;;;;;;5.50;2.90;;;8.00;99.90;;;;;;5052181;28;20276;-94
2023/03/16 02:01:25;;;;;;;5.20;2.83;;;8.00;99.90;;;;;;5051925;28;20241;-90
2023/03/16 02:03:56;;;;;;;5.77;2.80;;;7.90;99.90;;;;;;5036677;28;20248;-89
2023/03/16 02:06:22;;;;;;;5.27;2.60;;;7.90;99.90;;;;;;5050892;28;20716;-92
2023/03/16 02:08:49;;;;;;;6.63;2.80;;;8.00;99.90;;;;;;5051435;28;20236;-95
2023/03/16 02:11:18;;;;;;;5.97;2.70;;;8.00;99.90;;;;;;5053981;28;20173;-91
2023/03/16 02:13:45;;;;;;;5.43;2.47;;;8.00;99.90;;;;;;5036420;28;20165;-89
2023/03/16 02:16:18;;;;;;;3.87;2.13;;;8.00;99.90;;;;;;5052130;28;20706;-89
2023/03/16 02:18:48;;;;;;;5.30;2.40;;;7.90;99.90;;;;;;5018996;28;20245;-91
2023/03/16 02:21:31;;;;;;;5.00;2.23;;;8.00;99.90;;;;;;5050203;28;20213;-92
2023/03/16 02:24:01;;;;;;;7.20;2.30;;;8.00;99.90;;;;;;5052119;28;20532;-93
2023/03/16 02:26:46;;;;;;;4.77;2.00;;;8.00;99.90;;;;;;5052272;28;20181;-91
2023/03/16 02:29:37;;;;;;;5.23;2.30;;;8.00;99.90;;;;;;5056285;28;20266;-92
2023/03/16 02:32:04;;;;;;;5.73;2.17;;;8.00;99.90;;;;;;5073996;28;20188;-81
2023/03/16 02:34:30;;;;;;;5.00;2.27;;;7.90;99.90;;;;;;5073110;28;20350;-82
2023/03/16 02:36:57;;;;;;;3.23;2.10;;;7.90;99.90;;;;;;5073565;28;20193;-83
2023/03/16 02:39:23;;;;;;;5.33;2.23;;;8.20;99.90;;;;;;5072334;28;20227;-85
2023/03/16 02:41:49;;;;;;;4.57;2.27;;;8.00;99.90;;;;;;5070083;28;20552;-91
2023/03/16 02:44:32;;;;;;;3.50;2.07;;;8.20;99.90;;;;;;5060636;28;20177;-92
2023/03/16 02:47:06;;;;;;;5.87;2.40;;;8.00;99.90;;;;;;5062891;28;20162;-89
2023/03/16 02:49:41;;;;;;;6.10;2.40;;;8.00;99.90;;;;;;5067830;28;20162;-84
2023/03/16 02:52:07;;;;;;;6.73;2.47;;;8.00;99.90;;;;;;5064531;28;20196;-91
2023/03/16 02:54:34;;;;;;;6.70;2.53;;;8.10;99.90;;;;;;5055713;28;20537;-91
2023/03/16 02:57:00;;;;;;;5.53;2.40;;;8.10;99.90;;;;;;5050005;28;20185;-91
2023/03/16 02:59:27;;;;;;;6.10;2.17;;;8.10;99.90;;;;;;5034649;28;20201;-92
2023/03/16 03:01:52;;;;;;;5.27;2.10;;;8.10;99.90;;;;;;5069764;28;20251;-84
2023/03/16 03:04:19;;;;;;;5.57;2.20;;;8.20;99.90;;;;;;5071802;28;20241;-84
2023/03/16 03:06:45;;;;;;;3.77;2.43;;;8.30;99.90;;;;;;5066419;28;20328;-90
2023/03/16 03:09:11;;;;;;;4.10;2.43;;;8.20;99.90;;;;;;5063117;28;20166;-90
2023/03/16 03:11:37;;;;;;;5.87;2.53;;;8.20;99.90;;;;;;5060696;28;20284;-90
2023/03/16 03:14:03;;;;;;;4.73;2.60;;;8.30;99.90;;;;;;5058572;28;20173;-91
2023/03/16 03:16:30;;;;;;;5.63;2.20;;;8.20;99.90;;;;;;5064903;28;20165;-92
2023/03/16 03:18:56;;;;;;;6.00;2.53;;;8.30;99.90;;;;;;5073291;28;20177;-86
2023/03/16 03:21:22;;;;;;;5.90;2.40;;;8.30;99.90;;;;;;5054230;28;20273;-92
2023/03/16 03:23:48;;;;;;;9.20;2.77;;;8.30;99.90;;;;;;5059790;28;20177;-93
2023/03/16 03:26:15;;;;;;;6.47;2.70;;;8.20;99.90;;;;;;5034840;28;20177;-91
2023/03/16 03:28:40;;;;;;;4.37;2.40;;;8.20;99.90;;;;;;5051213;28;20610;-91
2023/03/16 03:31:12;;;;;;;5.37;2.43;;;8.30;99.90;;;;;;5050389;28;20213;-90
2023/03/16 03:33:39;;;;;;;7.27;2.30;;;8.30;99.90;;;;;;5033784;28;20231;-92
2023/03/16 03:36:05;;;;;;;5.67;2.50;;;8.30;99.90;;;;;;5049765;28;20241;-92
2023/03/16 03:38:30;;;;;;;7.50;2.47;;;8.40;99.90;;;;;;5050943;28;20232;-92
2023/03/16 03:40:58;;;;;;;8.63;2.40;;;8.60;99.90;;;;;;5050846;28;20344;-91
2023/03/16 03:43:24;;;;;;;5.27;2.33;;;8.50;99.90;;;;;;5053908;28;20209;-90
2023/03/16 03:45:55;;;;;;;4.73;2.33;;;8.40;99.90;;;;;;5039066;28;20170;-89
2023/03/16 03:48:21;;;;;;;7.53;2.80;;;8.50;99.90;;;;;;5044932;28;20162;-88
2023/03/16 03:50:46;;;;;;;5.07;2.30;;;8.70;99.90;;;;;;5073326;28;20182;-88
2023/03/16 03:53:12;;;;;;;6.73;2.43;;;8.50;99.90;;;;;;5055846;28;20181;-93
2023/03/16 03:55:39;;;;;;;5.50;2.47;;;8.50;99.90;;;;;;5057401;28;20180;-92
2023/03/16 03:58:05;;;;;;;4.30;2.17;;;8.40;99.90;;;;;;5058127;28;20205;-93
2023/03/16 04:00:30;;;;;;;5.30;2.10;;;8.30;99.90;;;;;;5056745;28;20209;-91
2023/03/16 04:02:56;;;;;;;6.17;2.07;;;8.30;99.90;;;;;;5056640;28;20170;-93
2023/03/16 04:05:24;;;;;;;6.50;2.30;;;8.40;99.90;;;;;;5055534;28;20272;-91
2023/03/16 04:07:53;;;;;;;4.10;2.23;;;8.50;99.90;;;;;;5054458;28;20629;-95
2023/03/16 04:10:19;;;;;;;4.87;2.30;;;8.60;99.90;;;;;;5054581;28;20182;-91
2023/03/16 04:12:45;;;;;;;4.97;2.30;;;8.50;99.90;;;;;;5047501;28;20204;-89
2023/03/16 04:15:11;;;;;;;4.77;1.97;;;8.50;99.90;;;;;;5072148;28;20169;-87
2023/03/16 04:17:37;;;;;;;5.03;2.20;;;8.40;99.90;;;;;;5073400;28;20158;-86
2023/03/16 04:20:13;;;;;;;4.80;2.07;;;8.60;99.90;;;;;;5065343;28;20217;-88
2023/03/16 04:22:39;;;;;;;5.90;2.13;;;8.40;99.90;;;;;;5056395;28;20200;-93
2023/03/16 04:25:04;;;;;;;4.77;2.10;;;8.30;99.90;;;;;;5069171;28;20173;-92
2023/03/16 04:27:35;;;;;;;6.33;2.00;;;8.30;99.90;;;;;;5075283;28;20188;-83
2023/03/16 04:30:10;;;;;;;3.90;1.87;;;8.30;99.90;;;;;;5047891;28;20232;-92
2023/03/16 04:32:37;;;;;;;4.53;1.70;;;8.40;99.90;;;;;;5062823;28;20245;-94
2023/03/16 04:35:05;;;;;;;3.47;1.60;;;8.40;99.90;;;;;;5024330;28;20181;-87
2023/03/16 04:37:30;;;;;;;5.60;1.83;;;8.20;99.90;;;;;;5056014;28;20224;-91
2023/03/16 04:39:56;;;;;;;6.77;2.00;;;8.20;99.90;;;;;;5057843;28;20209;-93
2023/03/16 04:42:22;;;;;;;3.43;1.90;;;8.10;99.90;;;;;;5054923;28;20189;-94
2023/03/16 04:44:48;;;;;;;4.57;1.97;;;8.20;99.90;;;;;;5056228;28;20201;-90
2023/03/16 04:47:15;;;;;;;6.40;1.90;;;8.20;99.90;;;;;;5036956;28;20236;-91
2023/03/16 04:49:41;;;;;;;4.73;2.07;;;8.40;99.90;;;;;;5053877;28;20169;-92
2023/03/16 04:52:08;;;;;;;6.50;1.90;;;8.20;99.90;;;;;;5055567;28;20183;-92
2023/03/16 04:54:34;;;;;;;3.90;1.97;;;8.30;99.90;;;;;;5058539;28;20235;-89
2023/03/16 04:57:02;;;;;;;5.63;1.80;;;8.40;99.90;;;;;;5056680;28;20185;-94
2023/03/16 04:59:29;;;;;;;2.83;1.43;;;8.20;99.90;;;;;;5040069;28;20165;-89
2023/03/16 05:01:54;;;;;;;3.47;2.00;;;8.20;99.90;;;;;;5069687;28;20189;-84
2023/03/16 05:04:23;;;;;;;4.70;2.17;;;8.00;99.90;;;;;;5067880;28;20260;-92
2023/03/16 05:06:50;;;;;;;3.57;2.03;;;8.10;99.90;;;;;;5054366;28;20166;-92
2023/03/16 05:09:19;;;;;;;3.87;1.80;;;8.10;99.90;;;;;;5046605;28;20172;-89
2023/03/16 05:11:47;;;;;;;4.40;1.70;;;8.10;99.90;;;;;;5071775;28;20162;-84
2023/03/16 05:14:14;;;;;;;4.67;1.60;;;8.10;99.90;;;;;;5069904;28;20280;-88
2023/03/16 05:16:40;;;;;;;5.17;1.83;;;8.10;99.90;;;;;;5063289;28;20200;-87
2023/03/16 05:19:06;;;;;;;5.90;1.90;;;8.20;99.90;;;;;;5066212;28;20173;-87
2023/03/16 05:21:33;;;;;;;4.60;1.70;;;8.20;99.90;;;;;;5047883;28;20217;-91
2023/03/16 05:23:58;;;;;;;3.13;1.60;;;8.30;99.90;;;;;;5071271;28;20166;-91
2023/03/16 05:26:25;;;;;;;8.23;2.77;;;8.10;99.90;;;;;;5070525;28;20181;-84
2023/03/16 05:28:50;;;;;;;3.40;1.60;;;8.00;99.90;;;;;;5055144;28;20192;-84
2023/03/16 05:31:17;;;;;;;5.40;1.77;;;7.90;99.90;;;;;;5057236;28;20173;-85
2023/03/16 05:33:43;;;;;;;4.13;1.60;;;7.90;99.90;;;;;;5057419;28;20165;-83
2023/03/16 05:36:10;;;;;;;3.87;1.80;;;8.00;99.90;;;;;;5050735;28;20178;-90
2023/03/16 05:38:38;;;;;;;3.93;1.77;;;8.10;99.90;;;;;;5040086;28;20178;-90
2023/03/16 05:41:04;;;;;;;5.87;1.90;;;8.10;99.90;;;;;;5037466;28;20217;-91
2023/03/16 05:43:30;;;;;;;3.57;1.83;;;8.00;99.90;;;;;;5044559;28;20162;-92
2023/03/16 05:45:56;;;;;;;3.80;1.60;;;8.00;99.90;;;;;;5040645;28;20188;-89
2023/03/16 05:48:25;;;;;;;4.67;2.00;;;8.10;99.90;;;;;;5037151;28;20173;-93
2023/03/16 05:50:52;;;;;;;4.97;1.53;;;8.10;99.90;;;;;;5035618;28;20544;-93
2023/03/16 05:53:18;;;;;;;4.07;2.30;;;8.10;99.90;;;;;;5041893;28;20172;-95
2023/03/16 05:55:44;;;;;;;4.37;1.70;;;8.10;99.90;;;;;;5043874;28;20165;-92
2023/03/16 05:58:10;;;;;;;4.90;2.00;;;8.10;99.90;;;;;;5035767;28;20174;-92
2023/03/16 06:00:38;;;;;;;4.87;1.90;;;8.10;99.90;;;;;;5035675;28;20247;-90
2023/03/16 06:03:05;;;;;;;5.63;2.00;;;8.10;99.90;;;;;;5038101;28;20173;-93
2023/03/16 06:05:31;;;;;;;3.97;1.80;;;8.00;99.90;;;;;;5036688;28;20184;-87
2023/03/16 06:08:00;;;;;;;7.07;1.90;;;8.00;99.90;;;;;;5038486;28;20182;-89
2023/03/16 06:10:26;;;;;;;5.73;1.90;;;8.00;99.90;;;;;;5041829;28;20677;-86
2023/03/16 06:12:53;;;;;;;5.57;1.87;;;8.00;99.90;;;;;;5050114;28;20158;-85
2023/03/16 06:15:19;;;;;;;3.90;1.37;;;8.00;99.90;;;;;;5055219;28;20292;-82
2023/03/16 06:17:44;;;;;;;7.70;2.27;;;8.00;99.90;;;;;;5056396;28;20174;-83
2023/03/16 06:20:16;;;;;;;2.70;1.50;;;8.10;99.90;;;;;;5047112;28;20224;-90
2023/03/16 06:22:42;;;;;;;5.27;1.77;;;8.00;99.90;;;;;;5034622;28;20200;-87
2023/03/16 06:25:11;;;;;;;6.33;2.17;;;7.90;99.90;;;;;;5035792;28;20681;-90
2023/03/16 06:27:37;;;;;;;6.30;2.20;;;8.20;99.90;;;;;;5037504;28;20178;-92
2023/03/16 06:30:07;;;;;;;6.23;2.33;;;8.00;99.90;;;;;;5037570;28;20201;-86
2023/03/16 06:32:34;;;;;;;3.87;1.60;;;8.10;99.90;;;;;;5051890;28;20161;-87
2023/03/16 06:35:02;;;;;;;6.20;1.87;;;8.10;99.90;;;;;;5054789;28;20158;-87
2023/03/16 06:37:31;;;;;;;5.80;2.23;;;8.10;99.90;;;;;;5049117;28;20558;-93
2023/03/16 06:39:57;;;;;;;4.43;1.93;;;8.10;99.90;;;;;;5044557;28;20221;-92
2023/03/16 06:42:24;;;;;;;4.17;1.93;;;8.10;99.90;;;;;;5050530;28;20189;-94
2023/03/16 06:44:51;;;;;;;3.97;1.73;;;8.10;99.90;;;;;;5043841;28;20178;-95
2023/03/16 06:47:20;;;;;;;3.37;1.83;;;8.30;99.90;;;;;;5043914;28;20189;-94
2023/03/16 06:49:46;;;;;;;5.50;2.33;;;8.10;99.90;;;;;;5041212;28;20169;-94
2023/03/16 06:52:43;;;;;;;4.10;1.80;;;8.10;99.90;;;;;;5042808;28;20242;-94
2023/03/16 06:55:15;;;;;;;5.23;2.10;;;8.10;99.90;;;;;;5044370;28;20192;-89
2023/03/16 06:57:41;;;;;;;6.60;2.20;;;8.20;99.90;;;;;;5039127;28;20192;-86
2023/03/16 07:00:14;;;;;;;4.30;2.30;;;8.10;99.90;;;;;;5053287;28;20197;-89
2023/03/16 07:02:42;;;;;;;3.67;2.00;;;8.10;99.90;;;;;;5036775;28;20189;-86
2023/03/16 07:05:12;;;;;;;6.13;2.00;;;8.10;99.90;;;;;;5047861;28;20196;-89
2023/03/16 07:07:41;;;;;;;5.23;2.07;;;8.20;99.90;;;;;;5048218;28;20172;-93
2023/03/16 07:10:16;;;;;;;4.70;2.30;;;8.30;99.90;;;;;;5048011;28;20173;-92
2023/03/16 07:12:49;;;;;;;5.63;2.20;;;8.30;99.90;;;;;;5053177;28;20169;-86
2023/03/16 07:15:19;;;;;;;5.73;2.30;;;8.40;99.90;;;;;;5055438;28;20177;-87
2023/03/16 07:17:52;;;;;;;6.40;2.10;;;8.30;99.90;;;;;;5057623;28;20179;-86
2023/03/16 07:20:20;;;;;;;5.03;2.03;;;8.40;99.90;;;;;;5056339;28;20245;-92
2023/03/16 07:22:47;;;;;;;4.73;2.10;;;8.40;99.90;;;;;;5055468;28;20243;-88
2023/03/16 07:25:13;;;;;;;6.17;2.50;;;8.50;99.90;;;;;;5057332;28;20181;-91
2023/03/16 07:27:58;;;;;;;7.77;2.47;;;8.40;99.90;;;;;;5053980;28;20193;-91
2023/03/16 07:30:34;;;;;;;5.77;2.23;;;8.50;99.90;;;;;;5056702;28;20197;-96
2023/03/16 07:33:00;;;;;;;7.13;2.30;;;8.60;99.90;;;;;;5057113;28;20251;-85
2023/03/16 07:35:26;;;;;;;5.20;2.23;;;8.70;99.90;;;;;;5054212;28;20174;-88
2023/03/16 07:37:54;;;;;;;6.70;2.40;;;8.80;99.90;;;;;;5052351;28;20262;-89
2023/03/16 07:40:20;;;;;;;5.40;1.90;;;8.80;99.90;;;;;;5056641;28;20217;-94
2023/03/16 07:42:48;;;;;;;6.33;2.50;;;8.80;99.90;;;;;;5055185;28;20211;-86
2023/03/16 07:45:18;;;;;;;6.27;2.30;;;9.00;99.90;;;;;;5055343;28;20193;-87
2023/03/16 07:48:06;;;;;;;5.77;2.00;;;9.00;99.90;;;;;;5054046;28;20181;-86
2023/03/16 07:50:32;;;;;;;6.00;2.33;;;9.10;99.90;;;;;;5052927;28;20177;-85
2023/03/16 07:52:58;;;;;;;6.33;2.80;;;9.20;99.90;;;;;;5054993;28;20161;-93
2023/03/16 07:55:27;;;;;;;7.83;2.47;;;9.20;99.90;;;;;;5053362;28;20170;-86
2023/03/16 07:57:52;;;;;;;4.43;1.80;;;9.30;99.90;;;;;;5041023;28;20255;-86
2023/03/16 08:00:22;;;;;;;5.07;1.87;;;9.40;99.90;;;;;;5053620;28;20213;-87
2023/03/16 08:02:52;;;;;;;6.03;2.40;;;9.50;99.90;;;;;;5058757;28;20180;-85
2023/03/16 08:05:33;;;;;;;4.57;2.03;;;9.50;99.90;;;;;;5058277;28;20169;-85
2023/03/16 08:08:08;;;;;;;6.43;2.03;;;9.50;99.90;;;;;;5047301;28;20237;-91
2023/03/16 08:10:36;;;;;;;12.30;2.50;;;9.60;99.90;;;;;;5049955;28;20173;-94
2023/03/16 08:13:04;;;;;;;5.73;2.33;;;9.60;99.90;;;;;;5049619;28;20224;-95
2023/03/16 08:15:34;;;;;;;6.33;1.93;;;9.80;99.90;;;;;;5048629;28;20197;-87
2023/03/16 08:18:02;;;;;;;3.60;1.80;;;9.80;99.90;;;;;;5051766;28;20216;-90
2023/03/16 08:20:29;;;;;;;4.97;1.73;;;9.80;99.90;;;;;;5054663;28;20280;-87
2023/03/16 08:22:55;;;;;;;7.83;1.77;;;9.90;99.90;;;;;;5050615;28;20214;-85
2023/03/16 08:25:21;;;;;;;6.90;2.07;;;10.10;99.90;;;;;;5057898;28;20178;-87
2023/03/16 08:27:48;;;;;;;6.97;2.00;;;10.10;99.90;;;;;;5058144;28;20178;-86
2023/03/16 08:30:21;;;;;;;6.03;1.83;;;10.10;99.90;;;;;;5057318;28;20201;-84
2023/03/16 08:32:50;;;;;;;4.00;1.60;;;10.30;99.90;;;;;;5052468;28;20235;-87
2023/03/16 08:35:17;;;;;;;7.73;2.10;;;10.50;99.90;;;;;;5055471;28;20157;-92
2023/03/16 08:37:46;;;;;;;6.27;1.83;;;10.60;99.90;;;;;;5033092;28;20186;-94
2023/03/16 08:40:15;;;;;;;4.60;1.60;;;10.60;99.90;;;;;;5052698;28;20213;-92
2023/03/16 08:42:43;;;;;;;5.73;1.70;;;10.60;99.90;;;;;;5055827;28;20168;-84
2023/03/16 08:45:14;;;;;;;5.77;1.90;;;10.60;99.90;;;;;;5057813;28;20166;-84
2023/03/16 08:47:50;;;;;;;4.70;1.50;;;10.50;99.90;;;;;;5059663;28;20146;-86
2023/03/16 08:50:18;;;;;;;7.07;1.77;;;10.50;99.90;;;;;;5056664;28;20200;-93
2023/03/16 08:53:04;;;;;;;6.57;2.33;;;10.70;99.90;;;;;;5058929;28;20162;-86
2023/03/16 08:55:32;;;;;;;11.37;1.97;;;10.80;99.90;;;;;;5056579;28;20166;-96
2023/03/16 08:58:01;;;;;;;6.97;2.30;;;11.00;99.90;;;;;;5052949;28;20197;-95
2023/03/16 09:00:28;;;;;;;4.27;1.50;;;11.10;99.90;;;;;;5039305;28;20218;-94
2023/03/16 09:02:55;;;;;;;3.63;1.57;;;11.00;99.90;;;;;;5054317;28;20201;-86
2023/03/16 09:05:24;;;;;;;5.23;1.73;;;11.00;99.90;;;;;;5037248;28;20246;-89
2023/03/16 09:07:50;;;;;;;5.67;1.37;;;10.90;99.90;;;;;;5037540;28;20212;-87
2023/03/16 09:10:17;;;;;;;3.30;1.50;;;11.00;99.90;;;;;;5053589;28;20177;-87
2023/03/16 09:12:46;;;;;;;5.63;2.30;;;10.90;99.90;;;;;;5051128;28;20208;-87
2023/03/16 09:15:12;;;;;;;2.80;1.50;;;10.90;99.90;;;;;;5048140;28;20192;-92
2023/03/16 09:18:02;;;;;;;5.23;1.50;;;11.00;99.90;;;;;;5033406;28;20196;-96
2023/03/16 09:20:29;;;;;;;8.00;1.60;;;10.90;99.90;;;;;;5048798;28;20225;-92
2023/03/16 09:23:00;;;;;;;3.30;1.50;;;10.90;99.90;;;;;;5046435;28;20164;-91
2023/03/16 09:25:27;;;;;;;4.20;1.93;;;11.00;99.90;;;;;;5031968;28;20206;-88
2023/03/16 09:27:53;;;;;;;7.87;1.37;;;11.00;99.90;;;;;;5050284;28;20173;-92
2023/03/16 09:30:19;;;;;;;6.67;1.43;;;11.10;99.90;;;;;;5048583;28;20213;-91
2023/03/16 09:32:47;;;;;;;3.90;1.63;;;11.20;99.90;;;;;;5048731;28;20178;-94
2023/03/16 09:35:16;;;;;;;3.87;1.40;;;11.30;99.90;;;;;;5047444;28;20181;-93
2023/03/16 09:37:42;;;;;;;5.00;1.63;;;11.40;99.90;;;;;;5043981;28;20257;-95
2023/03/16 09:40:22;;;;;;;3.77;1.60;;;11.40;99.90;;;;;;5042737;28;20213;-93
2023/03/16 09:43:17;;;;;;;5.87;1.43;;;11.50;99.90;;;;;;5043958;28;20241;-93
2023/03/16 09:46:30;;;;;;;4.60;1.30;;;11.50;99.90;;;;;;5046173;28;20527;-90
2023/03/16 09:49:24;;;;;;;3.57;1.47;;;11.60;99.90;;;;;;4950592;29;20572;-88
2023/03/16 09:52:02;;;;;;;4.63;1.37;;;11.70;99.90;;;;;;4951564;29;20223;-93
2023/03/16 09:54:48;;;;;;;5.40;1.57;;;11.80;99.90;;;;;;5030514;28;20184;-94
2023/03/16 09:57:43;;;;;;;2.53;1.10;;;12.00;99.90;;;;;;5038463;28;20213;-92
2023/03/16 10:00:25;;;;;;;6.77;1.40;;;12.00;99.90;;;;;;5028976;28;20218;-94
2023/03/16 10:03:14;;;;;;;4.77;1.73;;;12.10;99.90;;;;;;5028734;28;20166;-96
2023/03/16 10:05:41;;;;;;;3.00;1.23;;;12.30;99.90;;;;;;5032681;28;20245;-87
2023/03/16 10:08:23;;;;;;;3.40;1.23;;;12.30;99.90;;;;;;5037674;28;20164;-85
2023/03/16 10:11:43;;;;;;;4.17;1.10;;;12.50;99.90;;;;;;5037390;28;20270;-87
2023/03/16 10:14:40;;;;;;;3.20;1.20;;;12.60;99.90;;;;;;5036706;28;20162;-88
2023/03/16 10:17:40;;;;;;;2.73;1.10;;;12.70;99.90;;;;;;5036461;28;20187;-91
2023/03/16 10:20:18;;;;;;;3.57;1.40;;;12.80;99.90;;;;;;5045276;28;20233;-96
2023/03/16 10:22:47;;;;;;;6.27;1.50;;;12.90;99.90;;;;;;5051433;28;20184;-89
2023/03/16 10:25:45;;;;;;;4.70;1.20;;;13.00;99.90;;;;;;5036938;28;20213;-86
2023/03/16 10:28:23;;;;;;;2.37;1.00;;;13.10;99.90;;;;;;5051916;28;20177;-85
2023/03/16 10:30:53;;;;;;;4.50;1.40;;;13.10;99.90;;;;;;5034616;28;20216;-86
2023/03/16 10:33:32;;;;;;;3.87;1.20;;;13.20;99.90;;;;;;5048612;28;20237;-85
2023/03/16 10:36:26;;;;;;;7.60;1.50;;;13.40;99.90;;;;;;5031790;28;20185;-85
2023/03/16 10:39:15;;;;;;;3.47;1.47;;;13.60;99.90;;;;;;5031189;28;20263;-91
2023/03/16 10:41:53;;;;;;;3.17;1.10;;;13.70;99.90;;;;;;5046084;28;20224;-88
2023/03/16 10:44:25;;;;;;;2.97;1.10;;;13.60;99.90;;;;;;5043456;28;20247;-87
2023/03/16 10:47:16;;;;;;;2.87;1.30;;;13.60;99.90;;;;;;5025536;28;20190;-92
2023/03/16 10:49:47;;;;;;;3.33;1.33;;;13.60;99.90;;;;;;5040139;28;20185;-90
2023/03/16 10:52:45;;;;;;;3.07;1.00;;;13.70;99.90;;;;;;5033739;28;20188;-91
2023/03/16 10:55:34;;;;;;;3.80;1.20;;;13.90;99.90;;;;;;5030520;28;20201;-86
2023/03/16 10:58:07;;;;;;;2.63;1.17;;;13.70;99.90;;;;;;5046359;28;20522;-95
2023/03/16 11:00:40;;;;;;;6.03;1.90;;;13.70;99.90;;;;;;5045811;28;20224;-86
2023/03/16 11:03:38;;;;;;;5.17;1.47;;;13.80;99.90;;;;;;5044382;28;20177;-91
2023/03/16 11:06:16;;;;;;;4.57;1.40;;;13.80;99.90;;;;;;5028455;28;20202;-87
2023/03/16 11:08:44;;;;;;;2.47;1.00;;;13.70;99.90;;;;;;5030895;28;20180;-88
2023/03/16 11:11:31;;;;;;;4.80;1.60;;;13.70;99.90;;;;;;5030328;28;20245;-91
2023/03/16 11:14:00;;;;;;;3.20;1.30;;;13.90;99.90;;;;;;5049855;28;20200;-88
2023/03/16 11:17:01;;;;;;;3.80;1.10;;;14.10;99.90;;;;;;5049566;28;20216;-85
2023/03/16 11:19:38;;;;;;;4.37;1.30;;;14.20;99.90;;;;;;5054725;28;20146;-86
2023/03/16 11:22:16;;;;;;;5.73;1.27;;;14.20;99.90;;;;;;5053406;28;20172;-84
2023/03/16 11:24:51;;;;;;;6.27;1.00;;;14.10;99.90;;;;;;5056260;28;20164;-84
2023/03/16 11:27:23;;;;;;;3.37;1.40;;;14.10;99.90;;;;;;5052617;28;20198;-87
2023/03/16 11:30:01;;;;;;;1.93;1.03;;;14.00;99.90;;;;;;5050441;28;20179;-88
2023/03/16 11:32:52;;;;;;;3.20;1.10;;;14.00;99.90;;;;;;5050927;28;20172;-91
2023/03/16 11:35:50;;;;;;;3.97;1.10;;;14.00;99.90;;;;;;5048885;28;20256;-93
2023/03/16 11:38:54;;;;;;;1.97;0.90;;;14.10;99.90;;;;;;5049361;28;20215;-94
2023/03/16 11:41:48;;;;;;;3.67;1.17;;;14.00;99.90;;;;;;5049040;28;20210;-93
2023/03/16 11:44:37;;;;;;;3.37;1.13;;;13.80;99.90;;;;;;5054977;28;20158;-87
2023/03/16 11:47:22;;;;;;;3.00;1.00;;;13.90;99.90;;;;;;5056601;28;20160;-89
2023/03/16 11:50:16;;;;;;;4.20;1.40;;;13.90;99.90;;;;;;5053540;28;20175;-87
2023/03/16 11:53:37;;;;;;;3.30;1.20;;;14.00;99.90;;;;;;5052198;28;20174;-86
2023/03/16 11:56:38;;;;;;;3.27;1.40;;;14.10;99.90;;;;;;5050386;28;20178;-92
2023/03/16 11:59:31;;;;;;;3.10;1.07;;;14.20;99.90;;;;;;5043438;28;20177;-92
2023/03/16 12:02:04;;;;;;;3.07;1.27;;;14.30;99.90;;;;;;5047242;28;20194;-92
2023/03/16 12:04:53;;;;;;;5.43;1.33;;;14.30;99.90;;;;;;5047851;28;20181;-89
2023/03/16 12:07:43;;;;;;;3.77;1.60;;;14.40;99.90;;;;;;5050463;28;20200;-91
2023/03/16 12:10:09;;;;;;;2.33;1.03;;;14.50;99.90;;;;;;5040813;28;20605;-87
2023/03/16 12:12:53;;;;;;;3.83;1.50;;;14.70;99.90;;;;;;5053202;28;20178;-88
2023/03/16 12:16:18;;;;;;;5.17;1.53;;;14.50;99.90;;;;;;5052098;28;20208;-87
2023/03/16 12:18:54;;;;;;;2.67;1.33;;;14.60;99.90;;;;;;5053691;28;20201;-90
2023/03/16 12:21:41;;;;;;;4.33;1.37;;;14.60;99.90;;;;;;5057639;28;20201;-85
2023/03/16 12:24:41;;;;;;;2.53;1.10;;;14.50;99.90;;;;;;5059647;28;20186;-85
2023/03/16 12:27:16;;;;;;;3.40;1.20;;;14.50;99.90;;;;;;5043523;28;20177;-85
2023/03/16 12:30:08;;;;;;;4.80;1.47;;;14.50;99.90;;;;;;5056172;28;20157;-88
2023/03/16 12:33:03;;;;;;;3.23;1.10;;;14.60;99.90;;;;;;5051308;28;20184;-85
2023/03/16 12:35:56;;;;;;;6.17;1.37;;;14.80;99.90;;;;;;5050609;28;20173;-91
2023/03/16 12:38:56;;;;;;;3.27;1.40;;;14.90;99.90;;;;;;5053189;28;20178;-91
2023/03/16 12:42:08;;;;;;;3.70;1.37;;;15.00;99.90;;;;;;5057624;28;20213;-85
2023/03/16 12:44:54;;;;;;;3.93;1.23;;;15.10;99.90;;;;;;5020902;28;20200;-89
2023/03/16 12:47:51;;;;;;;2.97;1.63;;;15.20;99.90;;;;;;5054169;28;20162;-85
2023/03/16 12:50:23;;;;;;;4.57;1.50;;;15.10;99.90;;;;;;5047062;28;20189;-85
2023/03/16 12:52:51;;;;;;;4.30;2.03;;;15.10;99.90;;;;;;5057269;28;20208;-85
2023/03/16 12:55:50;;;;;;;4.80;1.67;;;15.10;99.90;;;;;;5056022;28;20278;-82
2023/03/16 12:58:18;;;;;;;1.53;1.00;;;15.10;99.90;;;;;;5053481;28;20186;-92
2023/03/16 13:00:59;;;;;;;3.70;1.30;;;15.40;99.90;;;;;;5046307;28;20213;-92
2023/03/16 13:03:47;;;;;;;2.87;1.20;;;15.30;99.90;;;;;;5053371;28;20200;-93
2023/03/16 13:06:23;;;;;;;5.20;1.50;;;15.20;99.90;;;;;;5041313;28;20162;-86
2023/03/16 13:09:00;;;;;;;3.23;1.37;;;15.10;99.90;;;;;;5058061;28;20200;-85
2023/03/16 13:11:50;;;;;;;6.27;1.33;;;15.20;99.90;;;;;;5057730;28;20173;-87
2023/03/16 13:14:39;;;;;;;3.90;1.03;;;15.50;99.90;;;;;;5057379;28;20246;-92
2023/03/16 13:17:19;;;;;;;3.20;1.00;;;15.60;99.90;;;;;;5052904;28;20196;-84
2023/03/16 13:20:11;;;;;;;1.20;0.90;;;15.50;99.90;;;;;;5056624;28;20154;-84
2023/03/16 13:22:48;;;;;;;2.83;1.17;;;15.50;99.90;;;;;;5052912;28;20281;-85
2023/03/16 13:25:42;;;;;;;3.07;1.10;;;15.50;99.90;;;;;;5048765;28;20207;-92